Ocoee 2

Latest Operating Information

Please note! Water release schedules often change without notice due to unanticipated changes in weather conditions and power system requirements.

Use caution near dams. A large amount of water may be discharged without warning at any time. Your safety depends on obeying all posted safety regulations and warnings. Learn more.

Ocoee 2 will be spilling intermittently until further notice.

Generation Releases

Caption
Day Time Period Generators
5/21/2018 1am - midnight 0
5/22/2018 midnight - midnight 0
5/23/2018 midnight - 1am 0

Observed Data

Caption
Day Time (Eastern) Reservoir Elevation (behind dam)* Tailwater Elevation (below dam)* Average Hourly Discharge*
5/19/2018 5 PM 843.51 2,753
5/19/2018 6 PM 844.26 4,064
5/19/2018 7 PM 844.39 4,310
5/19/2018 8 PM 844.35 4,233
5/19/2018 9 PM 844.34 4,205
5/19/2018 10 PM 844.32 4,190
5/19/2018 11 PM 844.19 3,883
5/19/2018 midnight 844.09 3,760
5/20/2018 1 AM 844.10 3,748
5/20/2018 2 AM 844.08 3,732
5/20/2018 3 AM 843.80 3,229
5/20/2018 4 AM 842.86 1,840
5/20/2018 5 AM 842.60 1,532
5/20/2018 6 AM 842.59 1,514
5/20/2018 7 AM 842.52 1,431
5/20/2018 8 AM 842.47 1,383
5/20/2018 9 AM 842.39 1,297
5/20/2018 10 AM 842.78 1,751
5/20/2018 11 AM 842.77 1,724
5/20/2018 noon 842.78 1,733
5/20/2018 1 PM 842.76 1,724
5/20/2018 2 PM 842.75 1,724
5/20/2018 3 PM 842.78 1,743
5/20/2018 4 PM 842.77 1,733
5/20/2018 5 PM 842.76 1,724
5/20/2018 6 PM 843.14 2,230
5/20/2018 7 PM 843.03 2,081
5/20/2018 8 PM 842.38 1,298
5/20/2018 9 PM 842.39 1,298
5/20/2018 10 PM 842.43 1,328
5/20/2018 11 PM 841.45 495
5/20/2018 midnight 841.00 236
5/21/2018 1 AM 840.78 148
5/21/2018 2 AM 840.65 103
5/21/2018 3 AM 842.81 1,784
5/21/2018 4 AM 842.76 1,732
5/21/2018 5 AM 842.70 1,659
5/21/2018 6 AM 842.73 1,695
5/21/2018 7 AM 842.99 2,013
5/21/2018 8 AM 842.89 1,925
5/21/2018 9 AM 842.80 1,767
5/21/2018 10 AM 842.71 1,667
5/21/2018 11 AM 842.71 1,659
5/21/2018 noon 842.72 1,667
5/21/2018 1 PM 842.74 1,677
5/21/2018 2 PM 842.72 1,667
5/21/2018 3 PM 842.70 1,651

Predicted Data

Caption
Day Average Inflow* Midnight Elevation* Average Outflow*
5/21/2018 1,390
5/22/2018 1,390
5/23/2018 1,390

*Elevations are in feet above sea level. Discharges are in cubic feet per second and are reported at the end of the hour.

Notes:

Water release schedules are updated periodically throughout the day. Next-day release schedules are usually available by 6 p.m. of the current day.

Observed water levels also are updated periodically throughout the day. Predicted water levels are updated at least once a day, by 1 p.m. Eastern time, and may be updated more frequently when conditions warrant.

More Information on Ocoee 2

General Overview

Recreational Releases Schedule

 

 

Reservoir Information

Get the most up-to-date information for each of the reservoirs TVA manages, including today’s observed lake levels, predicted elevations, planned releases, reservoir operating guides, ecological health ratings, fish-population survey results, recreation facilities and more.

 

 

Lake Info App

Want your lake info to go? Download the TVA Lake Info app, an easy-to-use resource for operating on and around reservoirs and dams in the TVA region. Available for iPhone and Android devices.